Aérodrome :
LOGIN :

S'inscrire | Disclaimer

   EN    FR    IT 

 










Légende :    VFR   VFR Marginal   IFR   IFR Intensif   IFR Très Intensif
Visi : 
Plafond : 
>= 8 km
>= 3000ft
5 à 8 km
1000 à 3000 ft
1500m à 5 km
500 à 1000 ft
800 à 1500m
200 à 500 ft
< 800m
< 200 ft
Symboles :   Orages  Brouillard  Fortes neiges  Fortes précipitations  Vent > 20 kt
SIGMETs :   Divers  Orages  Givrage  Turbulence  Onde Orograph.  Cendres Volcan.






- Altitude de l'aérodrome : 511 ft
- Code IATA : LHA


EDTL - Lahr Schwarzwald

DERNIER METAR :
  • 051850Z 19005KT 0250 R03/1000U FZFG VV/// M02/M02 Q1023

METARs EXPIRÉS :
  • 051820Z 22002KT 0100 R03/0550N FZFG VV/// M02/M02 Q1023
  • 051750Z VRB02KT 0100 R03/0450N FZFG VV/// M02/M02 Q1023
  • 051720Z 22003KT 0100 R03/0400N FZFG VV/// M02/M02 Q1023
  • 051650Z 23002KT 0050 R03/0375N FZFG VV/// M01/M01 Q1023

TAF TAF EDTL
Valide du 05 à 18h jusqu'au 06 à 00h UTC


051700Z 0518/0524 VRB02KT 0500 FZFG OVC001
TEMPO 0518/0524 0100 FZFG VV000



MET'MAP, la Météo Aéronautique d'un coup d'oeil ! - Copyright ORBIFLY Décembre 2007 - Disclaimer

ORBIFLY MET'MAP TEAM :

Programmation & Développement : Alexandra Zaïnal
Sur une idée originale de : Baudouin d'Aumeries
Assistance à la programmation : Marc-Olivier Méhu
Soutien technique & logistique : Manuel Goepfert

Contact : metmap@orbifly.com




SOURCES & CREDITS :

   NOAA